Awaji Maru — JD2988 — position and weather

sailwx.info

Track history (hours):
 
Tides and Currents Weather Stations Pressure Air Temp Water Temp Dewpoint Dewpoint Depression Visibility Wind Speed Wind Dir Waves Ship Positions

Awaji Maru

Last reported at 2016-Sep-25 04:34 UTC. Time now 2016-Sep-25 07:10 UTC.
Position N 35°27' E 139°39'.

Length 37 m; draft 3 m.

Type: Tug. MMSI: 431001074.

Date/timePositionNaut miles runAvg speedWind from/ knotsBaromVisibWave heightAir tempDewpointWater temp
2016-Sep-25 04:34N 35°27' E 139°39'4 0.9
2016-Sep-25 00:33N 35°27' E 139°43'4 1.9
2016-Sep-24 22:34N 35°27' E 139°39'0 0.0
2016-Sep-24 21:34N 35°27' E 139°39'0 0.0
2016-Sep-24 19:34N 35°27' E 139°39'0 0.0
2016-Sep-24 18:34N 35°27' E 139°39'0 0.0
2016-Sep-24 17:34N 35°27' E 139°39'0 0.0
2016-Sep-24 16:34N 35°27' E 139°39'0 0.0
2016-Sep-24 14:34N 35°27' E 139°39'0 0.0
2016-Sep-24 12:34N 35°27' E 139°39'0 0.0
2016-Sep-24 10:34N 35°27' E 139°39'0 0.0
2016-Sep-24 09:33N 35°27' E 139°39'0 0.0
2016-Sep-24 03:34N 35°27' E 139°39'0 0.0
2016-Sep-24 02:33N 35°27' E 139°39'0 0.0
2016-Sep-24 01:34N 35°27' E 139°39'0 0.0
2016-Sep-24 00:34N 35°27' E 139°39'0 0.0
2016-Sep-23 19:34N 35°27' E 139°39'0 0.0
2016-Sep-23 17:33N 35°27' E 139°39'0 0.0
2016-Sep-23 16:33N 35°27' E 139°39'0 0.0
2016-Sep-23 15:34N 35°27' E 139°39'2 1.1
2016-Sep-23 13:33N 35°26' E 139°41'2 0.5
2016-Sep-23 09:34N 35°27' E 139°39'0 0.0
2016-Sep-23 06:34N 35°27' E 139°39'0 0.0
2016-Sep-23 04:34N 35°27' E 139°39'1 1.2
2016-Sep-23 03:34N 35°27' E 139°40'1 1.3
2016-Sep-23 02:34N 35°26' E 139°41'2 2.1
2016-Sep-23 01:34N 35°27' E 139°39'0 0.0
2016-Sep-23 00:34N 35°27' E 139°39'0 0.0
2016-Sep-22 23:34N 35°27' E 139°39'0 0.0
2016-Sep-22 20:34N 35°27' E 139°39'0 0.0
2016-Sep-22 12:33N 35°27' E 139°39'1 0.1
2016-Sep-22 04:34N 35°27' E 139°39'3 3.3
2016-Sep-22 03:33N 35°24' E 139°41'4 1.3
2016-Sep-22 00:34N 35°27' E 139°39'0 0.0
2016-Sep-21 23:33N 35°27' E 139°39'0 0.0
2016-Sep-21 22:33N 35°27' E 139°39'0 0.0
2016-Sep-21 19:33N 35°27' E 139°39'0 0.0
2016-Sep-21 16:33N 35°27' E 139°39'0 0.0
2016-Sep-21 09:34N 35°27' E 139°39'0 0.0
2016-Sep-21 08:33N 35°27' E 139°39'0 0.0
2016-Sep-21 05:34N 35°27' E 139°39'0 0.2
2016-Sep-21 03:34N 35°27' E 139°39'3 3.4
2016-Sep-21 02:33N 35°28' E 139°43'4 0.4
2016-Sep-20 17:34N 35°27' E 139°39'0 0.0
2016-Sep-20 14:34N 35°27' E 139°39'0 0.0
2016-Sep-20 13:33N 35°27' E 139°39'0 0.0
2016-Sep-20 10:34N 35°27' E 139°39'0 0.0
2016-Sep-20 08:34N 35°27' E 139°39'0 0.0
2016-Sep-20 07:33N 35°27' E 139°39'1 0.9
2016-Sep-20 06:33N 35°27' E 139°40'1 0.2
2016-Sep-20 02:34N 35°27' E 139°39'0 0.0
2016-Sep-19 23:34N 35°27' E 139°39'0 0.0
2016-Sep-19 19:34N 35°27' E 139°39'0 0.0
2016-Sep-19 18:34N 35°27' E 139°39'0 0.0
2016-Sep-19 16:33N 35°27' E 139°39'0 0.0
2016-Sep-19 14:34N 35°27' E 139°39'0 0.0
2016-Sep-19 13:33N 35°27' E 139°39'0 0.0
2016-Sep-19 12:33N 35°27' E 139°39'0 0.0
2016-Sep-19 11:34N 35°27' E 139°39'0 0.0
2016-Sep-19 09:34N 35°27' E 139°39'0 0.0
2016-Sep-19 07:34N 35°27' E 139°39'0 0.0
2016-Sep-19 06:34N 35°27' E 139°39'4 1.4
2016-Sep-19 03:34N 35°23' E 139°41'0 0.5
2016-Sep-19 02:33N 35°23' E 139°41'5 2.3
2016-Sep-19 00:33N 35°27' E 139°39'0 0.0
2016-Sep-18 19:33N 35°27' E 139°39'0 0.0
2016-Sep-18 15:33N 35°27' E 139°39'0 0.0
2016-Sep-18 14:34N 35°27' E 139°39'0 0.0
2016-Sep-18 10:34N 35°27' E 139°39'2 1.6
2016-Sep-18 09:33N 35°27' E 139°41'3 0.4
2016-Sep-18 02:33N 35°28' E 139°44'3 3.3
2016-Sep-18 01:33N 35°31' E 139°46'0 0.0
2016-Sep-18 00:33N 35°31' E 139°46'6 3.2
2016-Sep-17 22:34N 35°27' E 139°40'1 0.8
2016-Sep-17 21:34N 35°27' E 139°39'0 0.0
2016-Sep-17 20:34N 35°27' E 139°39'0 0.0
2016-Sep-17 19:16N 35°27' E 139°39'0 0.0
2016-Sep-17 13:34N 35°27' E 139°39'0 0.0
2016-Sep-17 12:34N 35°27' E 139°39'0 0.0
2016-Sep-17 10:33N 35°27' E 139°39'0 0.0
2016-Sep-17 09:34N 35°27' E 139°39'0 0.0
2016-Sep-17 08:34N 35°27' E 139°39'0 0.0
2016-Sep-17 07:34N 35°27' E 139°39'6 3.0
2016-Sep-17 05:34N 35°29' E 139°46'0 0.5
2016-Sep-17 04:34N 35°29' E 139°45'0 0.1
2016-Sep-17 00:34N 35°28' E 139°46'6 0.8
2016-Sep-16 17:34N 35°27' E 139°39'0 0.0
2016-Sep-16 15:34N 35°27' E 139°39'0 0.0
2016-Sep-16 12:34N 35°27' E 139°39'0 0.0
2016-Sep-16 09:34N 35°27' E 139°39'0 0.0
2016-Sep-16 07:34N 35°27' E 139°39'0 0.0
2016-Sep-16 03:33N 35°27' E 139°39'0 0.0
2016-Sep-16 02:34N 35°27' E 139°39'0 0.0
2016-Sep-16 00:34N 35°27' E 139°39'3 1.7
2016-Sep-15 22:34N 35°26' E 139°43'2 2.0
2016-Sep-15 21:34N 35°28' E 139°44'0 0.0
2016-Sep-15 20:34N 35°28' E 139°44'2 1.2
2016-Sep-15 18:33N 35°27' E 139°41'1 0.2
2016-Sep-15 12:34N 35°26' E 139°41'2 1.7
2016-Sep-15 11:34N 35°26' E 139°43'  
Track history (hours):
 
Tides and Currents Weather Stations Pressure Air Temp Water Temp Dewpoint Dewpoint Depression Visibility Wind Speed Wind Dir Waves Ship Positions

Awaji Maru

Last reported at 2016-Sep-25 04:34 UTC. Time now 2016-Sep-25 07:10 UTC.
Position N 35°27' E 139°39'.

Length 37 m; draft 3 m.

Type: Tug. MMSI: 431001074.

Date/timePositionNaut miles runAvg speedWind from/ knotsBaromVisibWave heightAir tempDewpointWater temp
2016-Sep-25 04:34N 35°27' E 139°39'4 0.9
2016-Sep-25 00:33N 35°27' E 139°43'4 1.9
2016-Sep-24 22:34N 35°27' E 139°39'0 0.0
2016-Sep-24 21:34N 35°27' E 139°39'0 0.0
2016-Sep-24 19:34N 35°27' E 139°39'0 0.0
2016-Sep-24 18:34N 35°27' E 139°39'0 0.0
2016-Sep-24 17:34N 35°27' E 139°39'0 0.0
2016-Sep-24 16:34N 35°27' E 139°39'0 0.0
2016-Sep-24 14:34N 35°27' E 139°39'0 0.0
2016-Sep-24 12:34N 35°27' E 139°39'0 0.0
2016-Sep-24 10:34N 35°27' E 139°39'0 0.0
2016-Sep-24 09:33N 35°27' E 139°39'0 0.0
2016-Sep-24 03:34N 35°27' E 139°39'0 0.0
2016-Sep-24 02:33N 35°27' E 139°39'0 0.0
2016-Sep-24 01:34N 35°27' E 139°39'0 0.0
2016-Sep-24 00:34N 35°27' E 139°39'0 0.0
2016-Sep-23 19:34N 35°27' E 139°39'0 0.0
2016-Sep-23 17:33N 35°27' E 139°39'0 0.0
2016-Sep-23 16:33N 35°27' E 139°39'0 0.0
2016-Sep-23 15:34N 35°27' E 139°39'2 1.1
2016-Sep-23 13:33N 35°26' E 139°41'2 0.5
2016-Sep-23 09:34N 35°27' E 139°39'0 0.0
2016-Sep-23 06:34N 35°27' E 139°39'0 0.0
2016-Sep-23 04:34N 35°27' E 139°39'1 1.2
2016-Sep-23 03:34N 35°27' E 139°40'1 1.3
2016-Sep-23 02:34N 35°26' E 139°41'2 2.1
2016-Sep-23 01:34N 35°27' E 139°39'0 0.0
2016-Sep-23 00:34N 35°27' E 139°39'0 0.0
2016-Sep-22 23:34N 35°27' E 139°39'0 0.0
2016-Sep-22 20:34N 35°27' E 139°39'0 0.0
2016-Sep-22 12:33N 35°27' E 139°39'1 0.1
2016-Sep-22 04:34N 35°27' E 139°39'3 3.3
2016-Sep-22 03:33N 35°24' E 139°41'4 1.3
2016-Sep-22 00:34N 35°27' E 139°39'0 0.0
2016-Sep-21 23:33N 35°27' E 139°39'0 0.0
2016-Sep-21 22:33N 35°27' E 139°39'0 0.0
2016-Sep-21 19:33N 35°27' E 139°39'0 0.0
2016-Sep-21 16:33N 35°27' E 139°39'0 0.0
2016-Sep-21 09:34N 35°27' E 139°39'0 0.0
2016-Sep-21 08:33N 35°27' E 139°39'0 0.0
2016-Sep-21 05:34N 35°27' E 139°39'0 0.2
2016-Sep-21 03:34N 35°27' E 139°39'3 3.4
2016-Sep-21 02:33N 35°28' E 139°43'4 0.4
2016-Sep-20 17:34N 35°27' E 139°39'0 0.0
2016-Sep-20 14:34N 35°27' E 139°39'0 0.0
2016-Sep-20 13:33N 35°27' E 139°39'0 0.0
2016-Sep-20 10:34N 35°27' E 139°39'0 0.0
2016-Sep-20 08:34N 35°27' E 139°39'0 0.0
2016-Sep-20 07:33N 35°27' E 139°39'1 0.9
2016-Sep-20 06:33N 35°27' E 139°40'1 0.2
2016-Sep-20 02:34N 35°27' E 139°39'0 0.0
2016-Sep-19 23:34N 35°27' E 139°39'0 0.0
2016-Sep-19 19:34N 35°27' E 139°39'0 0.0
2016-Sep-19 18:34N 35°27' E 139°39'0 0.0
2016-Sep-19 16:33N 35°27' E 139°39'0 0.0
2016-Sep-19 14:34N 35°27' E 139°39'0 0.0
2016-Sep-19 13:33N 35°27' E 139°39'0 0.0
2016-Sep-19 12:33N 35°27' E 139°39'0 0.0
2016-Sep-19 11:34N 35°27' E 139°39'0 0.0
2016-Sep-19 09:34N 35°27' E 139°39'0 0.0
2016-Sep-19 07:34N 35°27' E 139°39'0 0.0
2016-Sep-19 06:34N 35°27' E 139°39'4 1.4
2016-Sep-19 03:34N 35°23' E 139°41'0 0.5
2016-Sep-19 02:33N 35°23' E 139°41'5 2.3
2016-Sep-19 00:33N 35°27' E 139°39'0 0.0
2016-Sep-18 19:33N 35°27' E 139°39'0 0.0
2016-Sep-18 15:33N 35°27' E 139°39'0 0.0
2016-Sep-18 14:34N 35°27' E 139°39'0 0.0
2016-Sep-18 10:34N 35°27' E 139°39'2 1.6
2016-Sep-18 09:33N 35°27' E 139°41'3 0.4
2016-Sep-18 02:33N 35°28' E 139°44'3 3.3
2016-Sep-18 01:33N 35°31' E 139°46'0 0.0
2016-Sep-18 00:33N 35°31' E 139°46'6 3.2
2016-Sep-17 22:34N 35°27' E 139°40'1 0.8
2016-Sep-17 21:34N 35°27' E 139°39'0 0.0
2016-Sep-17 20:34N 35°27' E 139°39'0 0.0
2016-Sep-17 19:16N 35°27' E 139°39'0 0.0
2016-Sep-17 13:34N 35°27' E 139°39'0 0.0
2016-Sep-17 12:34N 35°27' E 139°39'0 0.0
2016-Sep-17 10:33N 35°27' E 139°39'0 0.0
2016-Sep-17 09:34N 35°27' E 139°39'0 0.0
2016-Sep-17 08:34N 35°27' E 139°39'0 0.0
2016-Sep-17 07:34N 35°27' E 139°39'6 3.0
2016-Sep-17 05:34N 35°29' E 139°46'0 0.5
2016-Sep-17 04:34N 35°29' E 139°45'0 0.1
2016-Sep-17 00:34N 35°28' E 139°46'6 0.8
2016-Sep-16 17:34N 35°27' E 139°39'0 0.0
2016-Sep-16 15:34N 35°27' E 139°39'0 0.0
2016-Sep-16 12:34N 35°27' E 139°39'0 0.0
2016-Sep-16 09:34N 35°27' E 139°39'0 0.0
2016-Sep-16 07:34N 35°27' E 139°39'0 0.0
2016-Sep-16 03:33N 35°27' E 139°39'0 0.0
2016-Sep-16 02:34N 35°27' E 139°39'0 0.0
2016-Sep-16 00:34N 35°27' E 139°39'3 1.7
2016-Sep-15 22:34N 35°26' E 139°43'2 2.0
2016-Sep-15 21:34N 35°28' E 139°44'0 0.0
2016-Sep-15 20:34N 35°28' E 139°44'2 1.2
2016-Sep-15 18:33N 35°27' E 139°41'1 0.2
2016-Sep-15 12:34N 35°26' E 139°41'2 1.7
2016-Sep-15 11:34N 35°26' E 139°43'  

Dump ship's entire track history